Ceylon, Ohio
Current Conditions -  °F | °C
As of 12:53 PM on Friday 24 Oct 2014 (Local Time) from KPCW Reporting Station
Clear Clear  
Wind Chill: 62°   Ceiling: Unl
Heat Index: 62°   Visibility: 10mi
Dew Point: 46°   Wind: 7mph
Humidity: 56%   Direction: 250°WSW
Pressure: 30.06"   Gusts: NA
Location:  41.3748°N, 82.5554°W
Report Text: KPCW 241653Z AUTO 25006KT 10SM CLR 17/08 A3006 RMK AO2 T01660077 $
Loading
Personal Weather Stations






























Interactive Weather Map
Tropical Storm Tracking
New forecast layout! Learn more

10-Day Weather Forecast

Advertisements
Track Severe Weather on mobile